createdAt,value
2019-01-23T00:00:35.558Z,24.02
2019-01-23T00:03:08.063Z,22.58
2019-01-23T00:05:40.909Z,24.92
2019-01-23T00:08:13.061Z,23.12
2019-01-23T00:10:45.131Z,24.63
2019-01-23T00:13:18.131Z,27.32
2019-01-23T00:15:50.528Z,29.80
2019-01-23T00:18:22.610Z,26.37
2019-01-23T00:20:54.179Z,25.60
2019-01-23T00:23:25.891Z,23.83
2019-01-23T00:25:57.705Z,23.83
2019-01-23T00:28:30.504Z,25.08
2019-01-23T00:31:02.294Z,25.77
2019-01-23T00:33:34.687Z,27.22
2019-01-23T00:36:06.882Z,26.20
2019-01-23T00:38:38.466Z,26.15
2019-01-23T00:41:10.471Z,29.37
2019-01-23T00:43:42.253Z,27.90
2019-01-23T00:46:14.279Z,28.87
2019-01-23T00:48:46.293Z,28.35
2019-01-23T00:51:17.628Z,28.15
2019-01-23T00:53:49.291Z,27.58
2019-01-23T00:56:21.111Z,25.75
2019-01-23T00:58:53.142Z,28.42
2019-01-23T01:01:25.128Z,28.67
2019-01-23T01:03:56.810Z,28.42
2019-01-23T01:06:28.783Z,30.50
2019-01-23T01:09:00.464Z,30.23
2019-01-23T01:11:32.158Z,27.80
2019-01-23T01:14:04.064Z,28.98
2019-01-23T01:16:35.796Z,30.27
2019-01-23T01:19:07.821Z,28.75
2019-01-23T01:21:39.537Z,30.70
2019-01-23T01:24:11.241Z,31.97
2019-01-23T01:26:42.992Z,30.65
2019-01-23T01:29:14.605Z,33.13
2019-01-23T01:31:46.558Z,30.00
2019-01-23T01:34:18.549Z,31.35
2019-01-23T01:36:50.446Z,24.63
2019-01-23T01:39:22.350Z,31.62
2019-01-23T01:41:54.119Z,20.90
2019-01-23T01:44:25.916Z,21.50
2019-01-23T01:46:57.654Z,21.23
2019-01-23T01:49:29.341Z,23.45
2019-01-23T01:52:00.979Z,22.75
2019-01-23T01:54:32.726Z,24.05
2019-01-23T01:57:04.365Z,25.77
2019-01-23T01:59:36.220Z,25.88
2019-01-23T02:02:08.020Z,27.07
2019-01-23T02:04:40.356Z,29.87
2019-01-23T02:07:12.076Z,27.93
2019-01-23T02:09:45.599Z,29.85
2019-01-23T02:12:17.463Z,29.20
2019-01-23T02:14:49.555Z,30.05
2019-01-23T02:17:21.044Z,30.40
2019-01-23T02:19:52.701Z,30.27
2019-01-23T02:22:24.978Z,29.60
2019-01-23T02:24:56.686Z,26.97
2019-01-23T02:27:28.422Z,25.27
2019-01-23T02:30:00.335Z,23.30
2019-01-23T02:32:32.071Z,27.02
2019-01-23T02:35:03.769Z,29.02
2019-01-23T02:37:35.355Z,27.67
2019-01-23T02:40:09.985Z,27.30
2019-01-23T02:42:42.095Z,28.98
2019-01-23T02:45:14.198Z,29.52
2019-01-23T02:47:45.828Z,28.60
2019-01-23T02:50:18.434Z,31.27
2019-01-23T02:52:50.345Z,29.30
2019-01-23T02:55:22.094Z,30.40
2019-01-23T02:57:53.710Z,29.67
2019-01-23T03:00:25.545Z,31.20
2019-01-23T03:02:57.223Z,31.80
2019-01-23T03:05:28.834Z,28.23
2019-01-23T03:08:00.655Z,27.30
2019-01-23T03:10:32.814Z,27.42
2019-01-23T03:13:04.657Z,26.73
2019-01-23T03:15:36.401Z,28.20
2019-01-23T03:18:07.993Z,23.15
2019-01-23T03:20:39.729Z,24.35
2019-01-23T03:23:11.684Z,22.32
2019-01-23T03:25:43.654Z,22.22
2019-01-23T03:28:16.887Z,21.45
2019-01-23T03:30:48.693Z,21.07
2019-01-23T03:33:20.353Z,22.95
2019-01-23T03:35:52.168Z,19.80
2019-01-23T03:38:23.901Z,17.70
2019-01-23T03:40:55.644Z,20.40
2019-01-23T03:43:27.543Z,20.32
2019-01-23T03:45:59.259Z,18.65
2019-01-23T03:48:31.055Z,18.17
2019-01-23T03:51:02.635Z,19.48
2019-01-23T03:53:34.288Z,17.35
2019-01-23T03:56:09.082Z,16.67
2019-01-23T03:58:40.797Z,16.37
2019-01-23T04:01:12.721Z,19.32
2019-01-23T04:03:44.697Z,16.85
2019-01-23T04:06:16.484Z,19.98
2019-01-23T04:08:48.136Z,18.48
2019-01-23T04:11:19.734Z,18.10
2019-01-23T04:13:51.533Z,20.88
2019-01-23T04:16:23.109Z,18.02
2019-01-23T04:18:54.857Z,19.62
2019-01-23T04:21:26.570Z,20.27
2019-01-23T04:23:58.356Z,18.27
2019-01-23T04:26:30.124Z,19.80
2019-01-23T04:29:02.113Z,19.40
2019-01-23T04:31:33.627Z,20.85
2019-01-23T04:34:05.308Z,22.15
2019-01-23T04:36:37.271Z,24.23
2019-01-23T04:39:10.713Z,22.40
2019-01-23T04:41:42.352Z,28.05
2019-01-23T04:44:14.034Z,18.07
2019-01-23T04:46:45.628Z,20.88
2019-01-23T04:49:17.405Z,20.68
2019-01-23T04:51:54.817Z,21.95
2019-01-23T04:54:26.505Z,21.17
2019-01-23T04:56:58.559Z,21.52
2019-01-23T04:59:30.235Z,18.23
2019-01-23T05:02:02.013Z,20.30
2019-01-23T05:04:33.843Z,19.07
2019-01-23T05:07:05.472Z,17.35
2019-01-23T05:09:37.244Z,18.62
2019-01-23T05:12:08.946Z,23.90
2019-01-23T05:14:40.681Z,21.25
2019-01-23T05:17:12.509Z,18.12
2019-01-23T05:19:44.980Z,17.50
2019-01-23T05:22:16.804Z,18.02
2019-01-23T05:24:48.515Z,13.90
2019-01-23T05:27:20.154Z,15.15
2019-01-23T05:29:55.039Z,13.85
2019-01-23T05:32:25.489Z,13.10
2019-01-23T05:34:57.247Z,12.40
2019-01-23T05:37:28.995Z,12.53
2019-01-23T05:40:00.737Z,12.10
2019-01-23T05:42:32.483Z,12.82
2019-01-23T05:45:04.461Z,11.88
2019-01-23T05:47:36.473Z,12.53
2019-01-23T05:50:11.428Z,14.13
2019-01-23T05:52:43.209Z,15.68
2019-01-23T05:55:16.868Z,13.18
2019-01-23T05:57:48.607Z,12.47
2019-01-23T06:00:22.623Z,12.65
2019-01-23T06:02:54.848Z,12.07
2019-01-23T06:05:26.748Z,16.10
2019-01-23T06:07:58.541Z,14.65
2019-01-23T06:10:30.245Z,14.83
2019-01-23T06:13:01.875Z,16.70
2019-01-23T06:15:33.867Z,16.95
2019-01-23T06:18:06.197Z,16.87
2019-01-23T06:20:38.010Z,23.22
2019-01-23T06:23:09.568Z,15.53
2019-01-23T06:25:41.316Z,24.90
2019-01-23T06:28:12.821Z,22.27
2019-01-23T06:30:44.708Z,26.90
2019-01-23T06:33:16.242Z,25.15
2019-01-23T06:35:47.720Z,19.37
2019-01-23T06:38:19.348Z,17.55
2019-01-23T06:40:51.619Z,16.60
2019-01-23T06:43:23.406Z,18.40
2019-01-23T06:45:56.662Z,15.40
2019-01-23T06:48:28.254Z,18.73
2019-01-23T06:51:00.533Z,20.80
2019-01-23T06:53:32.201Z,20.70
2019-01-23T06:56:04.199Z,18.32
2019-01-23T06:58:35.992Z,17.20
2019-01-23T07:01:07.804Z,11.97
2019-01-23T07:03:39.462Z,13.35
2019-01-23T07:06:11.064Z,11.88
2019-01-23T07:08:42.773Z,11.80
2019-01-23T07:11:14.955Z,11.83
2019-01-23T07:13:46.696Z,13.58
2019-01-23T07:16:18.778Z,11.78
2019-01-23T07:18:50.934Z,14.15
2019-01-23T07:21:23.015Z,11.73
2019-01-23T07:23:55.146Z,11.90
2019-01-23T07:26:27.187Z,11.33
2019-01-23T07:28:58.955Z,10.65
2019-01-23T07:31:31.029Z,18.32
2019-01-23T07:34:03.645Z,17.82
2019-01-23T07:36:35.807Z,17.92
2019-01-23T07:39:11.449Z,15.90
2019-01-23T07:41:43.228Z,12.82
2019-01-23T07:44:15.032Z,11.65
2019-01-23T07:46:46.887Z,10.45
2019-01-23T07:49:19.708Z,12.05
2019-01-23T07:51:51.565Z,10.40
2019-01-23T07:54:23.669Z,10.33
2019-01-23T07:56:55.239Z,7.62
2019-01-23T07:59:26.932Z,12.17
2019-01-23T08:01:59.715Z,7.47
2019-01-23T08:04:31.735Z,9.83
2019-01-23T08:07:03.653Z,8.50
2019-01-23T08:09:35.396Z,8.30
2019-01-23T08:12:10.881Z,8.30
2019-01-23T08:14:42.571Z,10.03
2019-01-23T08:17:14.255Z,10.47
2019-01-23T08:19:45.636Z,11.57
2019-01-23T08:22:17.440Z,8.00
2019-01-23T08:24:49.109Z,7.17
2019-01-23T08:27:21.361Z,7.83
2019-01-23T08:29:53.599Z,7.63
2019-01-23T08:32:28.664Z,7.70
2019-01-23T08:35:04.937Z,8.23
2019-01-23T08:37:39.184Z,11.13
2019-01-23T08:40:13.880Z,11.07
2019-01-23T08:42:47.536Z,10.20
2019-01-23T08:45:20.152Z,11.83
2019-01-23T08:47:52.229Z,12.40
2019-01-23T08:50:34.232Z,9.57
2019-01-23T08:53:07.146Z,8.50
2019-01-23T08:55:39.171Z,10.47
2019-01-23T08:58:11.805Z,12.30
2019-01-23T09:00:45.970Z,9.03
2019-01-23T09:03:21.989Z,9.70
2019-01-23T09:05:54.235Z,11.03
2019-01-23T09:08:26.448Z,10.80
2019-01-23T09:10:59.303Z,11.47
2019-01-23T09:13:33.299Z,10.80
2019-01-23T09:16:05.452Z,9.73
2019-01-23T09:18:37.441Z,14.03
2019-01-23T09:21:09.970Z,8.57
2019-01-23T09:23:42.488Z,10.33
2019-01-23T09:26:15.309Z,14.10
2019-01-23T09:28:48.438Z,11.10
2019-01-23T09:32:09.499Z,11.13
2019-01-23T09:35:23.134Z,13.40
2019-01-23T09:39:09.806Z,10.13
2019-01-23T09:42:25.329Z,11.50
2019-01-23T09:46:11.852Z,14.93
2019-01-23T09:49:21.528Z,14.60
2019-01-23T09:52:29.967Z,16.75
2019-01-23T09:55:02.174Z,13.85
2019-01-23T09:57:37.698Z,11.63
2019-01-23T10:00:15.430Z,9.33
2019-01-23T10:02:47.314Z,10.00
2019-01-23T10:05:20.373Z,11.17
2019-01-23T10:07:53.109Z,10.73
2019-01-23T10:10:25.253Z,9.43
2019-01-23T10:12:57.312Z,9.27
2019-01-23T10:15:44.715Z,9.13
2019-01-23T10:18:16.971Z,13.27
2019-01-23T10:20:48.717Z,8.80
2019-01-23T10:23:20.368Z,12.37
2019-01-23T10:25:52.322Z,7.80
2019-01-23T10:28:24.349Z,7.80
2019-01-23T10:30:56.778Z,10.40
2019-01-23T10:33:29.368Z,8.93
2019-01-23T10:36:01.874Z,6.07
2019-01-23T10:38:36.745Z,8.33
2019-01-23T10:41:09.116Z,5.70
2019-01-23T10:43:41.681Z,5.70
2019-01-23T10:46:15.430Z,5.77
2019-01-23T10:48:47.418Z,4.13
2019-01-23T10:51:20.836Z,5.53
2019-01-23T10:53:53.016Z,4.50
2019-01-23T10:56:25.745Z,5.27
2019-01-23T10:58:59.495Z,4.73
2019-01-23T11:01:31.507Z,5.80
2019-01-23T11:04:03.837Z,9.17
2019-01-23T11:06:35.859Z,4.83
2019-01-23T11:09:10.450Z,5.77
2019-01-23T11:11:42.534Z,5.07
2019-01-23T11:14:14.569Z,5.47
2019-01-23T11:16:46.610Z,6.10
2019-01-23T11:19:18.668Z,5.03
2019-01-23T11:21:50.763Z,4.50
2019-01-23T11:24:22.603Z,4.70
2019-01-23T11:26:54.308Z,6.00
2019-01-23T11:29:26.533Z,6.87
2019-01-23T11:32:00.677Z,4.70
2019-01-23T11:34:34.557Z,5.57
2019-01-23T11:37:06.460Z,6.17
2019-01-23T11:39:39.228Z,5.23
2019-01-23T11:42:11.298Z,7.60
2019-01-23T11:44:44.818Z,6.67
2019-01-23T11:47:16.667Z,4.07
2019-01-23T11:49:48.771Z,4.60
2019-01-23T11:52:20.506Z,4.63
2019-01-23T11:54:52.458Z,5.30
2019-01-23T11:57:24.156Z,4.50
2019-01-23T11:59:56.035Z,4.57
2019-01-23T12:02:30.837Z,5.40
2019-01-23T12:05:01.642Z,6.27
2019-01-23T12:07:33.451Z,6.73
2019-01-23T12:10:05.542Z,7.20
2019-01-23T12:12:37.301Z,8.27
2019-01-23T12:15:11.278Z,8.67
2019-01-23T12:17:43.451Z,9.40
2019-01-23T12:20:16.273Z,8.80
2019-01-23T12:22:48.380Z,7.03
2019-01-23T12:25:20.579Z,4.93
2019-01-23T12:27:52.547Z,7.07
2019-01-23T12:30:33.926Z,8.47
2019-01-23T12:33:06.249Z,7.23
2019-01-23T12:35:38.195Z,6.53
2019-01-23T12:38:09.979Z,6.47
2019-01-23T12:40:41.839Z,9.60
2019-01-23T12:43:13.973Z,13.07
2019-01-23T12:45:45.788Z,9.00
2019-01-23T12:48:17.577Z,6.73
2019-01-23T12:50:49.752Z,6.80
2019-01-23T12:53:21.605Z,7.80
2019-01-23T12:55:53.222Z,5.50
2019-01-23T12:58:26.100Z,10.83
2019-01-23T13:00:57.787Z,7.67
2019-01-23T13:03:31.488Z,5.03
2019-01-23T13:06:10.443Z,4.30
2019-01-23T13:08:44.955Z,4.73
2019-01-23T13:11:18.000Z,4.30
2019-01-23T13:13:50.619Z,5.33
2019-01-23T13:16:23.098Z,5.47
2019-01-23T13:18:55.487Z,6.37
2019-01-23T13:21:28.022Z,5.50
2019-01-23T13:24:01.017Z,4.30
2019-01-23T13:26:33.438Z,7.30
2019-01-23T13:29:06.352Z,5.77
2019-01-23T13:31:40.174Z,6.60
2019-01-23T13:34:11.918Z,5.73
2019-01-23T13:36:46.093Z,4.50
2019-01-23T13:39:21.203Z,9.50
2019-01-23T13:41:53.528Z,6.30
2019-01-23T13:44:26.405Z,7.30
2019-01-23T13:46:58.908Z,6.87
2019-01-23T13:49:31.425Z,6.63
2019-01-23T13:52:03.113Z,9.27
2019-01-23T13:54:36.063Z,13.43
2019-01-23T13:57:09.017Z,18.63
2019-01-23T13:59:42.832Z,20.00
2019-01-23T14:02:15.888Z,8.57
2019-01-23T14:04:48.253Z,10.03
2019-01-23T14:07:21.073Z,7.50
2019-01-23T14:09:53.958Z,7.93
2019-01-23T14:12:26.387Z,6.43
2019-01-23T14:14:58.599Z,7.10
2019-01-23T14:17:32.817Z,7.37
2019-01-23T14:20:06.531Z,10.07
2019-01-23T14:22:39.686Z,7.57
2019-01-23T14:25:14.233Z,8.03
2019-01-23T14:27:46.579Z,10.70
2019-01-23T14:30:28.080Z,7.97
2019-01-23T14:33:00.853Z,9.80
2019-01-23T14:35:36.246Z,7.10
2019-01-23T14:38:09.393Z,8.30
2019-01-23T14:40:45.514Z,10.73
2019-01-23T14:43:17.654Z,6.60
2019-01-23T14:45:50.193Z,4.23
2019-01-23T14:48:22.614Z,5.33
2019-01-23T14:50:55.168Z,4.87
2019-01-23T14:53:27.774Z,5.13
2019-01-23T14:56:00.176Z,7.23
2019-01-23T14:58:33.363Z,5.50
2019-01-23T15:01:07.819Z,7.23
2019-01-23T15:03:40.111Z,9.60
2019-01-23T15:06:14.068Z,13.70
2019-01-23T15:08:46.316Z,15.70
2019-01-23T15:11:20.427Z,11.43
2019-01-23T15:13:53.115Z,7.70
2019-01-23T15:16:25.771Z,7.97
2019-01-23T15:19:03.584Z,8.93
2019-01-23T15:21:35.697Z,10.50
2019-01-23T15:24:09.557Z,7.40
2019-01-23T15:26:42.506Z,14.83
2019-01-23T15:29:14.687Z,12.60
2019-01-23T15:31:47.574Z,7.53
2019-01-23T15:34:21.123Z,5.63
2019-01-23T15:36:53.487Z,5.67
2019-01-23T15:39:25.739Z,4.17
2019-01-23T15:42:01.054Z,3.67
2019-01-23T15:44:33.637Z,5.00
2019-01-23T15:47:09.899Z,5.50
2019-01-23T15:49:42.603Z,5.23
2019-01-23T15:52:15.444Z,7.20
2019-01-23T15:54:48.237Z,5.78
2019-01-23T15:57:20.744Z,2.98
2019-01-23T15:59:53.878Z,4.58
2019-01-23T16:02:26.907Z,3.62
2019-01-23T16:04:58.775Z,2.33
2019-01-23T16:07:33.230Z,3.05
2019-01-23T16:10:06.915Z,4.78
2019-01-23T16:12:39.192Z,14.73
2019-01-23T16:15:12.342Z,5.05
2019-01-23T16:17:44.301Z,5.78
2019-01-23T16:20:16.271Z,1.62
2019-01-23T16:22:50.362Z,1.60
2019-01-23T16:25:22.325Z,2.75
2019-01-23T16:27:54.205Z,8.25
2019-01-23T16:30:40.617Z,8.55
2019-01-23T16:33:12.960Z,26.05
2019-01-23T16:35:45.340Z,5.33
2019-01-23T16:38:17.454Z,8.23
2019-01-23T16:40:49.477Z,6.25
2019-01-23T16:43:21.177Z,3.40
2019-01-23T16:45:53.414Z,2.70
2019-01-23T16:48:25.304Z,19.82
2019-01-23T16:50:57.876Z,7.30
2019-01-23T16:53:29.740Z,2.37
2019-01-23T16:56:01.950Z,5.62
2019-01-23T16:58:34.443Z,5.67
2019-01-23T17:01:07.339Z,2.20
2019-01-23T17:03:40.228Z,2.40
2019-01-23T17:06:12.597Z,2.35
2019-01-23T17:08:45.185Z,5.15
2019-01-23T17:11:17.601Z,7.45
2019-01-23T17:13:50.185Z,8.70
2019-01-23T17:16:22.148Z,5.62
2019-01-23T17:18:54.189Z,8.38
2019-01-23T17:21:25.953Z,8.25
2019-01-23T17:23:57.972Z,9.38
2019-01-23T17:26:30.480Z,9.20
2019-01-23T17:29:03.000Z,10.65
2019-01-23T17:31:34.840Z,5.05
2019-01-23T17:34:07.083Z,15.48
2019-01-23T17:36:38.687Z,14.25
2019-01-23T17:39:12.452Z,9.78
2019-01-23T17:41:45.767Z,8.85
2019-01-23T17:44:17.839Z,11.33
2019-01-23T17:46:50.264Z,8.90
2019-01-23T17:49:22.511Z,7.63
2019-01-23T17:51:54.930Z,5.55
2019-01-23T17:54:26.895Z,7.58
2019-01-23T17:57:00.439Z,18.23
2019-01-23T17:59:32.855Z,4.77
2019-01-23T18:02:05.164Z,6.85
2019-01-23T18:04:37.335Z,5.53
2019-01-23T18:07:09.566Z,8.50
2019-01-23T18:09:42.850Z,11.03
2019-01-23T18:12:15.666Z,13.75
2019-01-23T18:14:49.194Z,5.07
2019-01-23T18:17:22.402Z,10.30
2019-01-23T18:19:54.250Z,9.63
2019-01-23T18:22:26.486Z,9.63
2019-01-23T18:24:58.573Z,8.70
2019-01-23T18:27:30.866Z,10.15
2019-01-23T18:30:02.753Z,10.82
2019-01-23T18:32:35.155Z,15.73
2019-01-23T18:35:38.350Z,9.25
2019-01-23T18:38:54.713Z,9.53
2019-01-23T18:42:09.828Z,7.83
2019-01-23T18:45:27.839Z,11.10
2019-01-23T18:48:44.269Z,12.58
2019-01-23T18:51:40.585Z,7.85
2019-01-23T18:54:14.209Z,7.10
2019-01-23T18:56:48.029Z,4.45
2019-01-23T18:59:21.526Z,4.95
2019-01-23T19:01:54.318Z,8.70
2019-01-23T19:04:26.246Z,12.80
2019-01-23T19:06:59.086Z,4.15
2019-01-23T19:09:31.996Z,2.75
2019-01-23T19:12:06.635Z,6.95
2019-01-23T19:14:38.707Z,8.88
2019-01-23T19:17:11.734Z,14.03
2019-01-23T19:19:43.631Z,12.55
2019-01-23T19:22:15.943Z,6.10
2019-01-23T19:24:48.584Z,6.28
2019-01-23T19:27:22.326Z,5.92
2019-01-23T19:29:55.948Z,5.85
2019-01-23T19:32:27.565Z,5.33
2019-01-23T19:34:59.332Z,4.50
2019-01-23T19:37:31.901Z,3.65
2019-01-23T19:40:04.072Z,5.62
2019-01-23T19:42:36.240Z,2.92
2019-01-23T19:45:13.607Z,4.05
2019-01-23T19:47:47.266Z,8.10
2019-01-23T19:50:19.518Z,6.25
2019-01-23T19:52:51.458Z,3.42
2019-01-23T19:55:23.483Z,6.20
2019-01-23T19:57:55.542Z,5.95
2019-01-23T20:00:27.527Z,10.10
2019-01-23T20:03:00.036Z,3.55
2019-01-23T20:05:34.560Z,5.20
2019-01-23T20:08:07.376Z,3.87
2019-01-23T20:10:39.777Z,2.33
2019-01-23T20:13:13.439Z,3.25
2019-01-23T20:15:47.890Z,11.63
2019-01-23T20:18:20.001Z,11.57
2019-01-23T20:20:53.142Z,7.35
2019-01-23T20:23:25.203Z,11.88
2019-01-23T20:25:58.131Z,3.20
2019-01-23T20:28:33.818Z,4.90
2019-01-23T20:31:06.461Z,5.05
2019-01-23T20:33:40.258Z,6.35
2019-01-23T20:36:12.935Z,7.25
2019-01-23T20:38:45.390Z,8.77
2019-01-23T20:41:17.739Z,9.38
2019-01-23T20:43:53.905Z,5.47
2019-01-23T20:46:32.577Z,1.55
2019-01-23T20:49:07.269Z,7.40
2019-01-23T20:51:39.766Z,3.10
2019-01-23T20:54:12.021Z,13.97
2019-01-23T20:56:44.718Z,5.33
2019-01-23T20:59:18.274Z,13.50
2019-01-23T21:01:51.503Z,22.17
2019-01-23T21:04:24.433Z,6.30
2019-01-23T21:06:57.637Z,10.53
2019-01-23T21:09:36.028Z,8.73
2019-01-23T21:12:11.070Z,2.83
2019-01-23T21:14:43.300Z,2.72
2019-01-23T21:17:16.937Z,2.47
2019-01-23T21:19:51.682Z,6.03
2019-01-23T21:22:25.622Z,7.22
2019-01-23T21:25:00.005Z,6.70
2019-01-23T21:27:33.339Z,8.60
2019-01-23T21:30:08.613Z,10.00
2019-01-23T21:32:53.951Z,9.63
2019-01-23T21:35:28.652Z,10.13
2019-01-23T21:38:05.144Z,7.20
2019-01-23T21:40:37.703Z,6.43
2019-01-23T21:43:09.896Z,1.90
2019-01-23T21:45:43.110Z,1.67
2019-01-23T21:48:17.380Z,3.63
2019-01-23T21:50:50.816Z,7.63
2019-01-23T21:53:23.586Z,8.77
2019-01-23T21:55:56.194Z,10.70
2019-01-23T21:58:29.012Z,6.58
2019-01-23T22:01:03.693Z,8.67
2019-01-23T22:03:38.573Z,2.87
2019-01-23T22:06:13.823Z,4.83
2019-01-23T22:08:46.232Z,15.93
2019-01-23T22:11:19.722Z,11.40
2019-01-23T22:13:52.100Z,1.72
2019-01-23T22:16:25.094Z,1.30
2019-01-23T22:18:58.669Z,1.85
2019-01-23T22:21:33.389Z,19.07
2019-01-23T22:24:05.759Z,4.05
2019-01-23T22:26:44.322Z,1.85
2019-01-23T22:29:16.235Z,3.58
2019-01-23T22:31:49.814Z,1.52
2019-01-23T22:34:21.952Z,1.90
2019-01-23T22:36:55.180Z,0.98
2019-01-23T22:39:27.141Z,0.80
2019-01-23T22:41:59.505Z,0.80
2019-01-23T22:44:31.673Z,1.10
2019-01-23T22:47:05.585Z,1.45
2019-01-23T22:49:37.617Z,3.20
2019-01-23T22:52:09.717Z,2.65
2019-01-23T22:54:43.865Z,1.72
2019-01-23T22:57:17.810Z,1.98
2019-01-23T22:59:51.495Z,1.52
2019-01-23T23:02:25.941Z,1.80
2019-01-23T23:05:00.968Z,4.20
2019-01-23T23:07:34.951Z,1.98
2019-01-23T23:10:11.382Z,6.10
2019-01-23T23:12:44.781Z,31.55
2019-01-23T23:15:17.574Z,14.70
2019-01-23T23:17:49.782Z,6.40
2019-01-23T23:20:22.237Z,7.47
2019-01-23T23:22:54.150Z,3.50
2019-01-23T23:25:26.196Z,5.78
2019-01-23T23:27:58.898Z,5.22
2019-01-23T23:30:31.451Z,2.35
2019-01-23T23:33:03.632Z,3.83
2019-01-23T23:35:36.368Z,5.15
2019-01-23T23:38:08.790Z,6.03
2019-01-23T23:40:40.600Z,6.20
2019-01-23T23:43:13.063Z,3.75
2019-01-23T23:45:44.876Z,2.55
2019-01-23T23:48:17.077Z,2.02
2019-01-23T23:50:52.546Z,1.80
2019-01-23T23:53:24.423Z,1.72
2019-01-23T23:55:56.570Z,1.70
2019-01-23T23:58:28.785Z,2.98
